sensor_id;sensor_type;location;lat;lon;timestamp;pressure;altitude;pressure_sealevel;temperature;humidity
28797;BME280;24974;54.444;18.560;2022-09-09T05:05:17;101192.13;;;12.99;81.98
28797;BME280;24974;54.444;18.560;2022-09-09T05:07:51;101188.00;;;13.10;81.23
28797;BME280;24974;54.444;18.560;2022-09-09T05:10:23;101189.69;;;13.42;79.25
28797;BME280;24974;54.444;18.560;2022-09-09T05:12:54;101196.19;;;13.77;78.03
28797;BME280;24974;54.444;18.560;2022-09-09T05:15:27;101193.44;;;13.77;78.13
28797;BME280;24974;54.444;18.560;2022-09-09T05:18:00;101195.53;;;13.71;78.17
28797;BME280;24974;54.444;18.560;2022-09-09T05:20:34;101196.69;;;13.79;77.52
28797;BME280;24974;54.444;18.560;2022-09-09T05:23:06;101201.44;;;13.48;78.55
28797;BME280;24974;54.444;18.560;2022-09-09T05:25:37;101201.16;;;13.58;78.42
28797;BME280;24974;54.444;18.560;2022-09-09T05:28:09;101202.72;;;13.50;78.63
28797;BME280;24974;54.444;18.560;2022-09-09T05:30:42;101204.00;;;13.75;77.93
28797;BME280;24974;54.444;18.560;2022-09-09T05:33:13;101202.00;;;14.07;77.26
28797;BME280;24974;54.444;18.560;2022-09-09T05:35:44;101199.03;;;14.03;76.60
28797;BME280;24974;54.444;18.560;2022-09-09T05:38:15;101188.69;;;13.69;78.51
28797;BME280;24974;54.444;18.560;2022-09-09T05:40:49;101194.56;;;13.45;78.51
28797;BME280;24974;54.444;18.560;2022-09-09T05:43:20;101201.59;;;13.51;77.24
28797;BME280;24974;54.444;18.560;2022-09-09T05:46:09;101208.00;;;13.38;77.46
28797;BME280;24974;54.444;18.560;2022-09-09T05:48:43;101208.75;;;13.52;77.86
28797;BME280;24974;54.444;18.560;2022-09-09T05:51:17;101218.16;;;13.06;78.39
28797;BME280;24974;54.444;18.560;2022-09-09T05:53:49;101215.94;;;12.72;77.95
28797;BME280;24974;54.444;18.560;2022-09-09T05:56:23;101219.44;;;13.00;77.37
28797;BME280;24974;54.444;18.560;2022-09-09T05:58:56;101224.38;;;13.12;77.27
28797;BME280;24974;54.444;18.560;2022-09-09T06:01:33;101217.44;;;13.37;76.43
28797;BME280;24974;54.444;18.560;2022-09-09T06:04:06;101221.69;;;13.21;76.23
28797;BME280;24974;54.444;18.560;2022-09-09T06:06:38;101215.50;;;12.79;77.87
28797;BME280;24974;54.444;18.560;2022-09-09T06:09:17;101224.88;;;12.92;77.85
28797;BME280;24974;54.444;18.560;2022-09-09T06:11:48;101225.72;;;12.78;78.29
28797;BME280;24974;54.444;18.560;2022-09-09T06:14:19;101232.69;;;12.98;78.08
28797;BME280;24974;54.444;18.560;2022-09-09T06:16:52;101225.31;;;12.85;78.69
28797;BME280;24974;54.444;18.560;2022-09-09T06:19:26;101228.97;;;12.80;78.58
28797;BME280;24974;54.444;18.560;2022-09-09T06:22:00;101234.84;;;13.01;77.99
28797;BME280;24974;54.444;18.560;2022-09-09T06:24:33;101227.00;;;13.17;77.35
28797;BME280;24974;54.444;18.560;2022-09-09T06:27:06;101230.53;;;13.09;77.61
28797;BME280;24974;54.444;18.560;2022-09-09T06:29:40;101228.19;;;13.02;78.25
28797;BME280;24974;54.444;18.560;2022-09-09T06:32:12;101236.59;;;12.97;78.26
28797;BME280;24974;54.444;18.560;2022-09-09T06:34:43;101234.22;;;13.04;78.09
28797;BME280;24974;54.444;18.560;2022-09-09T06:37:16;101237.75;;;13.19;77.75
28797;BME280;24974;54.444;18.560;2022-09-09T06:39:51;101232.75;;;13.07;77.45
28797;BME280;24974;54.444;18.560;2022-09-09T06:42:22;101233.66;;;12.94;77.59
28797;BME280;24974;54.444;18.560;2022-09-09T06:44:53;101236.53;;;13.25;76.58
28797;BME280;24974;54.444;18.560;2022-09-09T06:47:39;101237.41;;;12.98;76.59
28797;BME280;24974;54.444;18.560;2022-09-09T06:50:10;101245.06;;;12.51;77.77
28797;BME280;24974;54.444;18.560;2022-09-09T06:52:42;101249.84;;;12.59;77.56
28797;BME280;24974;54.444;18.560;2022-09-09T06:55:17;101245.59;;;12.53;78.00
28797;BME280;24974;54.444;18.560;2022-09-09T06:57:48;101249.84;;;12.73;77.34
28797;BME280;24974;54.444;18.560;2022-09-09T07:00:25;101248.22;;;12.58;76.69
28797;BME280;24974;54.444;18.560;2022-09-09T07:02:56;101250.59;;;12.51;77.09
28797;BME280;24974;54.444;18.560;2022-09-09T07:05:27;101247.81;;;12.65;76.89
28797;BME280;24974;54.444;18.560;2022-09-09T07:07:58;101244.97;;;12.70;76.89
28797;BME280;24974;54.444;18.560;2022-09-09T07:10:30;101251.19;;;12.75;76.56
28797;BME280;24974;54.444;18.560;2022-09-09T07:13:01;101253.53;;;13.04;75.63
28797;BME280;24974;54.444;18.560;2022-09-09T07:15:32;101258.75;;;12.70;76.09
28797;BME280;24974;54.444;18.560;2022-09-09T07:18:04;101261.84;;;12.54;76.64
28797;BME280;24974;54.444;18.560;2022-09-09T07:20:36;101250.19;;;12.57;76.33
28797;BME280;24974;54.444;18.560;2022-09-09T07:23:07;101253.28;;;12.92;75.70
28797;BME280;24974;54.444;18.560;2022-09-09T07:25:44;101254.13;;;12.79;75.81
28797;BME280;24974;54.444;18.560;2022-09-09T07:28:16;101256.63;;;12.89;75.38
28797;BME280;24974;54.444;18.560;2022-09-09T07:31:00;101259.41;;;12.89;75.78
28797;BME280;24974;54.444;18.560;2022-09-09T07:33:34;101257.13;;;12.69;76.35
28797;BME280;24974;54.444;18.560;2022-09-09T07:36:29;101258.94;;;12.73;76.08
28797;BME280;24974;54.444;18.560;2022-09-09T07:39:11;101260.78;;;12.64;76.28
28797;BME280;24974;54.444;18.560;2022-09-09T07:41:47;101261.25;;;12.94;75.51
28797;BME280;24974;54.444;18.560;2022-09-09T07:44:23;101263.09;;;12.84;75.53
28797;BME280;24974;54.444;18.560;2022-09-09T07:47:15;101270.13;;;12.91;75.75
28797;BME280;24974;54.444;18.560;2022-09-09T07:49:49;101267.97;;;13.01;75.65
28797;BME280;24974;54.444;18.560;2022-09-09T07:52:25;101272.53;;;12.70;75.89
28797;BME280;24974;54.444;18.560;2022-09-09T07:55:00;101277.28;;;12.92;76.04
28797;BME280;24974;54.444;18.560;2022-09-09T07:57:33;101271.72;;;12.69;76.23
28797;BME280;24974;54.444;18.560;2022-09-09T08:00:05;101277.97;;;12.97;75.31
28797;BME280;24974;54.444;18.560;2022-09-09T08:02:42;101275.28;;;12.70;75.90
28797;BME280;24974;54.444;18.560;2022-09-09T08:05:15;101273.59;;;12.82;75.83
28797;BME280;24974;54.444;18.560;2022-09-09T08:07:48;101267.56;;;12.94;75.46
28797;BME280;24974;54.444;18.560;2022-09-09T08:10:19;101259.47;;;12.98;75.17
28797;BME280;24974;54.444;18.560;2022-09-09T08:12:52;101282.28;;;12.89;75.20
28797;BME280;24974;54.444;18.560;2022-09-09T08:15:23;101275.34;;;12.92;74.93
28797;BME280;24974;54.444;18.560;2022-09-09T08:17:55;101280.06;;;12.92;74.93
28797;BME280;24974;54.444;18.560;2022-09-09T08:20:27;101276.91;;;12.84;75.26
28797;BME280;24974;54.444;18.560;2022-09-09T08:22:58;101283.31;;;12.94;75.33
28797;BME280;24974;54.444;18.560;2022-09-09T08:25:29;101287.22;;;12.65;75.86
28797;BME280;24974;54.444;18.560;2022-09-09T08:28:01;101289.88;;;12.84;75.58
28797;BME280;24974;54.444;18.560;2022-09-09T08:30:33;101290.19;;;13.19;74.09
28797;BME280;24974;54.444;18.560;2022-09-09T08:33:04;101279.38;;;13.08;74.25
28797;BME280;24974;54.444;18.560;2022-09-09T08:35:36;101281.38;;;12.94;75.23
28797;BME280;24974;54.444;18.560;2022-09-09T08:38:07;101285.50;;;13.05;75.00
28797;BME280;24974;54.444;18.560;2022-09-09T08:40:43;101288.19;;;12.97;74.65
28797;BME280;24974;54.444;18.560;2022-09-09T08:43:21;101291.69;;;12.88;75.07
28797;BME280;24974;54.444;18.560;2022-09-09T08:46:09;101292.50;;;12.89;75.43
28797;BME280;24974;54.444;18.560;2022-09-09T08:48:55;101288.75;;;12.85;75.31
28797;BME280;24974;54.444;18.560;2022-09-09T08:51:30;101291.19;;;12.86;75.69
28797;BME280;24974;54.444;18.560;2022-09-09T08:54:04;101288.59;;;12.68;76.76
28797;BME280;24974;54.444;18.560;2022-09-09T08:56:36;101288.09;;;12.52;77.96
28797;BME280;24974;54.444;18.560;2022-09-09T08:59:17;101294.03;;;12.81;77.52
28797;BME280;24974;54.444;18.560;2022-09-09T09:02:00;101292.78;;;12.51;78.14
28797;BME280;24974;54.444;18.560;2022-09-09T09:04:59;101293.56;;;12.66;78.17
28797;BME280;24974;54.444;18.560;2022-09-09T09:07:59;101293.22;;;12.95;77.13
28797;BME280;24974;54.444;18.560;2022-09-09T09:10:47;101292.97;;;12.69;77.70
28797;BME280;24974;54.444;18.560;2022-09-09T09:13:38;101293.66;;;12.74;78.07
28797;BME280;24974;54.444;18.560;2022-09-09T09:18:58;101295.72;;;12.69;77.47
28797;BME280;24974;54.444;18.560;2022-09-09T09:21:41;101302.00;;;12.83;77.49
28797;BME280;24974;54.444;18.560;2022-09-09T09:24:28;101302.88;;;12.56;78.84
28797;BME280;24974;54.444;18.560;2022-09-09T09:27:15;101294.69;;;12.78;78.60
28797;BME280;24974;54.444;18.560;2022-09-09T09:29:54;101295.69;;;12.82;77.68
28797;BME280;24974;54.444;18.560;2022-09-09T09:32:33;101295.53;;;12.51;79.01
28797;BME280;24974;54.444;18.560;2022-09-09T09:35:10;101294.19;;;12.76;78.54
28797;BME280;24974;54.444;18.560;2022-09-09T09:37:42;101292.91;;;12.96;77.68
28797;BME280;24974;54.444;18.560;2022-09-09T09:40:18;101288.25;;;13.05;77.61
28797;BME280;24974;54.444;18.560;2022-09-09T09:42:57;101292.28;;;13.35;76.84
28797;BME280;24974;54.444;18.560;2022-09-09T09:45:33;101300.84;;;12.98;77.64
28797;BME280;24974;54.444;18.560;2022-09-09T09:48:10;101292.06;;;13.09;77.56
28797;BME280;24974;54.444;18.560;2022-09-09T09:50:51;101302.06;;;13.41;76.50
28797;BME280;24974;54.444;18.560;2022-09-09T09:53:29;101309.88;;;12.89;77.71
28797;BME280;24974;54.444;18.560;2022-09-09T09:56:04;101305.47;;;12.88;77.57
28797;BME280;24974;54.444;18.560;2022-09-09T09:58:51;101306.34;;;13.48;76.20
28797;BME280;24974;54.444;18.560;2022-09-09T10:01:32;101303.28;;;13.49;76.29
28797;BME280;24974;54.444;18.560;2022-09-09T10:04:18;101300.50;;;13.27;76.50
28797;BME280;24974;54.444;18.560;2022-09-09T10:06:52;101303.75;;;13.15;77.35
28797;BME280;24974;54.444;18.560;2022-09-09T10:09:32;101300.38;;;13.32;76.69
28797;BME280;24974;54.444;18.560;2022-09-09T10:14:55;101297.03;;;13.21;77.20
28797;BME280;24974;54.444;18.560;2022-09-09T10:20:37;101288.66;;;13.49;76.30
28797;BME280;24974;54.444;18.560;2022-09-09T10:31:44;101286.50;;;13.46;76.54
28797;BME280;24974;54.444;18.560;2022-09-09T10:40:26;101299.22;;;13.78;75.40
28797;BME280;24974;54.444;18.560;2022-09-09T10:46:05;101293.47;;;13.65;75.13
28797;BME280;24974;54.444;18.560;2022-09-09T10:49:01;101297.31;;;13.56;75.83
28797;BME280;24974;54.444;18.560;2022-09-09T10:51:53;101295.03;;;13.80;75.44
28797;BME280;24974;54.444;18.560;2022-09-09T10:57:54;101291.84;;;13.95;74.83
28797;BME280;24974;54.444;18.560;2022-09-09T11:00:51;101297.34;;;13.95;74.48
28797;BME280;24974;54.444;18.560;2022-09-09T11:03:26;101280.78;;;13.95;74.31
28797;BME280;24974;54.444;18.560;2022-09-09T11:06:06;101294.03;;;13.54;75.41
28797;BME280;24974;54.444;18.560;2022-09-09T11:08:41;101289.63;;;13.53;76.50
28797;BME280;24974;54.444;18.560;2022-09-09T11:11:18;101289.56;;;13.66;75.56
28797;BME280;24974;54.444;18.560;2022-09-09T11:14:14;101288.13;;;13.69;75.75
28797;BME280;24974;54.444;18.560;2022-09-09T11:16:52;101296.72;;;13.67;75.67
28797;BME280;24974;54.444;18.560;2022-09-09T11:19:44;101297.19;;;13.92;75.31
28797;BME280;24974;54.444;18.560;2022-09-09T11:22:31;101292.06;;;14.08;74.93
28797;BME280;24974;54.444;18.560;2022-09-09T11:36:33;101300.84;;;14.10;74.65
28797;BME280;24974;54.444;18.560;2022-09-09T11:41:46;101305.72;;;14.04;75.34
28797;BME280;24974;54.444;18.560;2022-09-09T11:44:27;101305.56;;;13.78;75.78
28797;BME280;24974;54.444;18.560;2022-09-09T11:46:59;101298.91;;;14.10;75.45
28797;BME280;24974;54.444;18.560;2022-09-09T11:49:42;101310.69;;;14.24;74.68
28797;BME280;24974;54.444;18.560;2022-09-09T11:52:34;101303.00;;;13.82;75.95
28797;BME280;24974;54.444;18.560;2022-09-09T11:58:03;101304.19;;;14.29;74.20
28797;BME280;24974;54.444;18.560;2022-09-09T12:00:46;101309.34;;;14.13;75.02
28797;BME280;24974;54.444;18.560;2022-09-09T12:06:27;101308.13;;;14.37;74.30
28797;BME280;24974;54.444;18.560;2022-09-09T12:11:50;101303.69;;;14.67;73.38
28797;BME280;24974;54.444;18.560;2022-09-09T12:14:55;101304.41;;;14.41;74.15
28797;BME280;24974;54.444;18.560;2022-09-09T12:19:45;101304.69;;;14.31;75.00
28797;BME280;24974;54.444;18.560;2022-09-09T12:22:27;101304.06;;;14.43;74.48
28797;BME280;24974;54.444;18.560;2022-09-09T12:28:11;101308.25;;;14.63;74.38
28797;BME280;24974;54.444;18.560;2022-09-09T12:33:22;101308.69;;;14.56;74.31
28797;BME280;24974;54.444;18.560;2022-09-09T12:35:56;101305.03;;;14.38;74.15
28797;BME280;24974;54.444;18.560;2022-09-09T12:38:46;101302.91;;;14.35;74.86
28797;BME280;24974;54.444;18.560;2022-09-09T12:41:22;101304.56;;;14.36;74.46
28797;BME280;24974;54.444;18.560;2022-09-09T12:44:09;101308.22;;;14.23;75.44
28797;BME280;24974;54.444;18.560;2022-09-09T12:46:43;101302.00;;;14.48;74.53
28797;BME280;24974;54.444;18.560;2022-09-09T12:49:39;101301.19;;;14.48;74.74
28797;BME280;24974;54.444;18.560;2022-09-09T12:52:37;101307.94;;;14.81;73.79
28797;BME280;24974;54.444;18.560;2022-09-09T12:55:24;101303.22;;;14.73;74.28
28797;BME280;24974;54.444;18.560;2022-09-09T12:57:57;101300.72;;;14.46;74.40
28797;BME280;24974;54.444;18.560;2022-09-09T13:00:30;101302.88;;;14.66;74.04
28797;BME280;24974;54.444;18.560;2022-09-09T13:03:16;101302.50;;;14.19;75.92
28797;BME280;24974;54.444;18.560;2022-09-09T13:05:50;101303.06;;;14.30;76.28
28797;BME280;24974;54.444;18.560;2022-09-09T13:08:21;101309.78;;;14.07;76.53
28797;BME280;24974;54.444;18.560;2022-09-09T13:11:01;101306.91;;;14.12;76.60
28797;BME280;24974;54.444;18.560;2022-09-09T13:13:41;101305.28;;;14.19;76.82
28797;BME280;24974;54.444;18.560;2022-09-09T13:16:39;101313.13;;;14.26;76.68
28797;BME280;24974;54.444;18.560;2022-09-09T13:19:14;101299.50;;;13.98;77.31
28797;BME280;24974;54.444;18.560;2022-09-09T13:21:46;101304.94;;;14.12;77.12
28797;BME280;24974;54.444;18.560;2022-09-09T13:24:36;101297.94;;;14.46;76.06
28797;BME280;24974;54.444;18.560;2022-09-09T13:27:30;101295.06;;;14.20;77.50
28797;BME280;24974;54.444;18.560;2022-09-09T13:30:01;101292.78;;;14.22;77.36
28797;BME280;24974;54.444;18.560;2022-09-09T13:32:32;101286.06;;;14.06;77.37
28797;BME280;24974;54.444;18.560;2022-09-09T13:35:03;101291.22;;;14.38;76.42
28797;BME280;24974;54.444;18.560;2022-09-09T13:37:37;101286.00;;;14.28;76.83
28797;BME280;24974;54.444;18.560;2022-09-09T13:40:20;101281.88;;;14.25;76.84
28797;BME280;24974;54.444;18.560;2022-09-09T13:42:55;101285.09;;;14.50;76.29
28797;BME280;24974;54.444;18.560;2022-09-09T13:45:26;101285.91;;;14.59;76.26
28797;BME280;24974;54.444;18.560;2022-09-09T13:48:08;101284.31;;;14.75;75.93
28797;BME280;24974;54.444;18.560;2022-09-09T13:50:39;101284.16;;;14.63;76.43
28797;BME280;24974;54.444;18.560;2022-09-09T13:53:12;101283.34;;;14.23;77.34
28797;BME280;24974;54.444;18.560;2022-09-09T13:55:43;101286.13;;;14.23;77.53
28797;BME280;24974;54.444;18.560;2022-09-09T13:58:16;101283.38;;;14.32;77.07
28797;BME280;24974;54.444;18.560;2022-09-09T14:00:49;101276.50;;;14.12;77.54
28797;BME280;24974;54.444;18.560;2022-09-09T14:03:21;101268.94;;;14.43;76.88
28797;BME280;24974;54.444;18.560;2022-09-09T14:05:52;101273.97;;;14.41;77.03
28797;BME280;24974;54.444;18.560;2022-09-09T14:08:26;101272.75;;;14.56;76.47
28797;BME280;24974;54.444;18.560;2022-09-09T14:10:57;101269.66;;;14.18;77.75
28797;BME280;24974;54.444;18.560;2022-09-09T14:13:29;101277.78;;;14.14;77.66
28797;BME280;24974;54.444;18.560;2022-09-09T14:16:00;101273.97;;;14.41;77.35
28797;BME280;24974;54.444;18.560;2022-09-09T14:18:30;101266.53;;;14.50;76.43
28797;BME280;24974;54.444;18.560;2022-09-09T14:21:02;101265.59;;;14.64;75.91
28797;BME280;24974;54.444;18.560;2022-09-09T14:23:33;101269.59;;;14.40;76.58
28797;BME280;24974;54.444;18.560;2022-09-09T14:26:08;101272.75;;;14.16;77.44
28797;BME280;24974;54.444;18.560;2022-09-09T14:28:39;101268.28;;;14.38;76.69
28797;BME280;24974;54.444;18.560;2022-09-09T14:31:10;101264.28;;;14.52;76.98
28797;BME280;24974;54.444;18.560;2022-09-09T14:33:44;101268.00;;;14.48;76.28
28797;BME280;24974;54.444;18.560;2022-09-09T14:36:15;101267.06;;;14.61;76.35
28797;BME280;24974;54.444;18.560;2022-09-09T14:38:46;101270.72;;;14.39;77.13
28797;BME280;24974;54.444;18.560;2022-09-09T14:41:18;101274.91;;;14.85;75.49
28797;BME280;24974;54.444;18.560;2022-09-09T14:43:50;101269.59;;;14.40;77.11
28797;BME280;24974;54.444;18.560;2022-09-09T14:46:22;101272.19;;;14.37;77.59
28797;BME280;24974;54.444;18.560;2022-09-09T14:48:53;101278.66;;;14.32;77.96
28797;BME280;24974;54.444;18.560;2022-09-09T14:51:25;101280.16;;;14.38;77.54
28797;BME280;24974;54.444;18.560;2022-09-09T14:53:58;101281.72;;;14.22;78.21
28797;BME280;24974;54.444;18.560;2022-09-09T14:56:31;101282.00;;;14.51;77.05
28797;BME280;24974;54.444;18.560;2022-09-09T14:59:05;101291.00;;;14.26;78.31
28797;BME280;24974;54.444;18.560;2022-09-09T15:01:36;101287.97;;;14.36;77.50
28797;BME280;24974;54.444;18.560;2022-09-09T15:04:07;101283.66;;;14.52;77.41
28797;BME280;24974;54.444;18.560;2022-09-09T15:06:38;101290.19;;;14.25;78.12
28797;BME280;24974;54.444;18.560;2022-09-09T15:09:10;101280.75;;;14.26;77.75
28797;BME280;24974;54.444;18.560;2022-09-09T15:11:40;101277.13;;;14.09;78.53
28797;BME280;24974;54.444;18.560;2022-09-09T15:14:11;101279.66;;;14.36;78.25
28797;BME280;24974;54.444;18.560;2022-09-09T15:16:42;101279.69;;;14.45;77.88
28797;BME280;24974;54.444;18.560;2022-09-09T15:19:13;101281.38;;;14.15;78.58
28797;BME280;24974;54.444;18.560;2022-09-09T15:21:44;101279.47;;;14.33;77.74
28797;BME280;24974;54.444;18.560;2022-09-09T15:24:15;101280.25;;;14.24;78.42
28797;BME280;24974;54.444;18.560;2022-09-09T15:26:46;101285.31;;;14.22;78.31
28797;BME280;24974;54.444;18.560;2022-09-09T15:29:17;101285.41;;;14.09;78.94
28797;BME280;24974;54.444;18.560;2022-09-09T15:31:49;101289.59;;;14.37;78.36
28797;BME280;24974;54.444;18.560;2022-09-09T15:34:21;101299.13;;;14.62;77.61
28797;BME280;24974;54.444;18.560;2022-09-09T15:36:52;101294.88;;;14.16;78.71
28797;BME280;24974;54.444;18.560;2022-09-09T15:39:24;101299.13;;;14.22;78.94
28797;BME280;24974;54.444;18.560;2022-09-09T15:41:54;101290.13;;;14.48;77.98
28797;BME280;24974;54.444;18.560;2022-09-09T15:44:26;101294.72;;;14.52;77.75
28797;BME280;24974;54.444;18.560;2022-09-09T15:46:56;101290.34;;;14.20;79.47
28797;BME280;24974;54.444;18.560;2022-09-09T15:49:27;101289.19;;;14.52;77.63
28797;BME280;24974;54.444;18.560;2022-09-09T15:51:59;101280.38;;;14.11;79.56
28797;BME280;24974;54.444;18.560;2022-09-09T15:54:35;101289.44;;;14.42;78.08
28797;BME280;24974;54.444;18.560;2022-09-09T15:57:11;101291.31;;;14.64;77.24
28797;BME280;24974;54.444;18.560;2022-09-09T15:59:42;101297.31;;;14.58;77.47
28797;BME280;24974;54.444;18.560;2022-09-09T16:02:13;101292.25;;;14.60;77.77
28797;BME280;24974;54.444;18.560;2022-09-09T16:04:44;101293.72;;;14.57;77.92
28797;BME280;24974;54.444;18.560;2022-09-09T16:07:15;101288.75;;;14.28;78.91
28797;BME280;24974;54.444;18.560;2022-09-09T16:09:46;101291.06;;;14.43;78.06
28797;BME280;24974;54.444;18.560;2022-09-09T16:12:17;101298.88;;;14.41;78.51
28797;BME280;24974;54.444;18.560;2022-09-09T16:14:47;101295.59;;;14.39;78.55
28797;BME280;24974;54.444;18.560;2022-09-09T16:17:18;101294.72;;;14.52;77.67
28797;BME280;24974;54.444;18.560;2022-09-09T16:19:50;101290.50;;;14.24;79.07
28797;BME280;24974;54.444;18.560;2022-09-09T16:22:21;101288.84;;;14.45;78.60
28797;BME280;24974;54.444;18.560;2022-09-09T16:24:52;101287.47;;;14.43;78.42
28797;BME280;24974;54.444;18.560;2022-09-09T16:27:23;101284.75;;;14.51;78.48
28797;BME280;24974;54.444;18.560;2022-09-09T16:29:53;101282.28;;;14.41;78.78
28797;BME280;24974;54.444;18.560;2022-09-09T16:32:24;101286.78;;;14.20;79.61
28797;BME280;24974;54.444;18.560;2022-09-09T16:34:55;101292.00;;;14.30;79.34
28797;BME280;24974;54.444;18.560;2022-09-09T16:37:26;101288.38;;;14.52;78.42
28797;BME280;24974;54.444;18.560;2022-09-09T16:39:57;101294.47;;;14.40;79.49
28797;BME280;24974;54.444;18.560;2022-09-09T16:42:28;101294.59;;;14.35;79.08
28797;BME280;24974;54.444;18.560;2022-09-09T16:44:59;101282.13;;;14.38;79.10
28797;BME280;24974;54.444;18.560;2022-09-09T16:47:30;101286.13;;;14.71;77.72
28797;BME280;24974;54.444;18.560;2022-09-09T16:50:01;101288.91;;;14.80;77.73
28797;BME280;24974;54.444;18.560;2022-09-09T16:52:32;101286.59;;;14.65;77.87
28797;BME280;24974;54.444;18.560;2022-09-09T16:55:03;101292.78;;;14.62;78.41
28797;BME280;24974;54.444;18.560;2022-09-09T16:57:34;101292.09;;;14.56;78.80
28797;BME280;24974;54.444;18.560;2022-09-09T17:00:06;101293.00;;;14.43;79.35
28797;BME280;24974;54.444;18.560;2022-09-09T17:02:37;101290.63;;;14.59;78.79
28797;BME280;24974;54.444;18.560;2022-09-09T17:05:09;101288.09;;;14.97;77.21
28797;BME280;24974;54.444;18.560;2022-09-09T17:07:40;101285.44;;;14.66;78.62
28797;BME280;24974;54.444;18.560;2022-09-09T17:10:10;101283.03;;;14.73;78.17
28797;BME280;24974;54.444;18.560;2022-09-09T17:12:41;101285.66;;;14.87;77.58
28797;BME280;24974;54.444;18.560;2022-09-09T17:15:12;101295.34;;;14.58;78.61
28797;BME280;24974;54.444;18.560;2022-09-09T17:17:44;101291.94;;;14.52;79.11
28797;BME280;24974;54.444;18.560;2022-09-09T17:20:15;101298.28;;;14.53;78.90
28797;BME280;24974;54.444;18.560;2022-09-09T17:22:47;101295.03;;;14.60;78.66
28797;BME280;24974;54.444;18.560;2022-09-09T17:25:19;101298.34;;;14.31;79.75
28797;BME280;24974;54.444;18.560;2022-09-09T17:27:50;101289.22;;;14.70;78.26
28797;BME280;24974;54.444;18.560;2022-09-09T17:30:21;101289.22;;;14.70;78.04
28797;BME280;24974;54.444;18.560;2022-09-09T17:32:53;101290.22;;;14.91;77.86
28797;BME280;24974;54.444;18.560;2022-09-09T17:35:24;101295.19;;;14.46;79.33
28797;BME280;24974;54.444;18.560;2022-09-09T17:37:54;101302.88;;;14.75;78.47
28797;BME280;24974;54.444;18.560;2022-09-09T17:40:27;101300.38;;;14.47;79.42
28797;BME280;24974;54.444;18.560;2022-09-09T17:42:57;101316.69;;;14.58;79.13
28797;BME280;24974;54.444;18.560;2022-09-09T17:45:28;101314.72;;;14.58;79.10
28797;BME280;24974;54.444;18.560;2022-09-09T17:48:00;101320.09;;;14.54;79.31
28797;BME280;24974;54.444;18.560;2022-09-09T17:50:33;101318.03;;;14.77;78.26
28797;BME280;24974;54.444;18.560;2022-09-09T17:53:04;101333.03;;;14.76;78.25
28797;BME280;24974;54.444;18.560;2022-09-09T17:55:35;101319.53;;;15.01;77.47
28797;BME280;24974;54.444;18.560;2022-09-09T17:58:06;101323.94;;;15.19;77.02
28797;BME280;24974;54.444;18.560;2022-09-09T18:00:36;101324.50;;;14.55;78.80
28797;BME280;24974;54.444;18.560;2022-09-09T18:03:07;101322.41;;;14.70;78.35
28797;BME280;24974;54.444;18.560;2022-09-09T18:05:39;101328.91;;;14.65;78.99
28797;BME280;24974;54.444;18.560;2022-09-09T18:08:10;101333.66;;;14.82;78.22
28797;BME280;24974;54.444;18.560;2022-09-09T18:10:41;101329.97;;;15.13;77.04
28797;BME280;24974;54.444;18.560;2022-09-09T18:13:14;101339.88;;;14.88;77.92
28797;BME280;24974;54.444;18.560;2022-09-09T18:15:47;101337.38;;;14.69;78.67
28797;BME280;24974;54.444;18.560;2022-09-09T18:18:18;101340.50;;;14.76;78.38
28797;BME280;24974;54.444;18.560;2022-09-09T18:21:00;101338.56;;;14.85;78.26
28797;BME280;24974;54.444;18.560;2022-09-09T18:23:38;101338.22;;;14.78;78.45
28797;BME280;24974;54.444;18.560;2022-09-09T18:26:11;101332.88;;;14.99;77.80
28797;BME280;24974;54.444;18.560;2022-09-09T18:28:47;101335.97;;;14.97;77.83
28797;BME280;24974;54.444;18.560;2022-09-09T18:31:20;101329.47;;;14.93;78.54
28797;BME280;24974;54.444;18.560;2022-09-09T18:33:53;101331.09;;;14.94;78.28
28797;BME280;24974;54.444;18.560;2022-09-09T18:36:37;101333.06;;;14.94;78.11
28797;BME280;24974;54.444;18.560;2022-09-09T18:39:10;101343.91;;;14.81;78.59
28797;BME280;24974;54.444;18.560;2022-09-09T18:41:49;101336.78;;;15.06;77.60
28797;BME280;24974;54.444;18.560;2022-09-09T18:44:24;101332.22;;;14.85;78.59
28797;BME280;24974;54.444;18.560;2022-09-09T18:46:56;101325.88;;;14.84;78.43
28797;BME280;24974;54.444;18.560;2022-09-09T18:49:27;101333.66;;;14.82;78.64
28797;BME280;24974;54.444;18.560;2022-09-09T18:51:58;101335.13;;;14.71;79.18
28797;BME280;24974;54.444;18.560;2022-09-09T18:54:30;101341.94;;;14.73;79.28
28797;BME280;24974;54.444;18.560;2022-09-09T18:57:03;101340.56;;;15.02;78.05
28797;BME280;24974;54.444;18.560;2022-09-09T18:59:35;101337.91;;;14.79;79.04
28797;BME280;24974;54.444;18.560;2022-09-09T19:02:06;101337.09;;;14.88;78.58
28797;BME280;24974;54.444;18.560;2022-09-09T19:04:37;101346.38;;;14.92;78.59
28797;BME280;24974;54.444;18.560;2022-09-09T19:07:08;101351.13;;;15.00;78.19
28797;BME280;24974;54.444;18.560;2022-09-09T19:09:40;101344.59;;;14.87;78.56
28797;BME280;24974;54.444;18.560;2022-09-09T19:12:11;101345.09;;;15.06;78.25
28797;BME280;24974;54.444;18.560;2022-09-09T19:14:42;101352.78;;;15.09;78.11
28797;BME280;24974;54.444;18.560;2022-09-09T19:17:13;101353.41;;;14.98;77.94
28797;BME280;24974;54.444;18.560;2022-09-09T19:19:44;101347.56;;;15.17;77.73
28797;BME280;24974;54.444;18.560;2022-09-09T19:22:15;101347.56;;;15.08;77.81
28797;BME280;24974;54.444;18.560;2022-09-09T19:24:46;101346.25;;;15.23;77.43